sensor_id;sensor_type;location;lat;lon;timestamp;P1;durP1;ratioP1;P2;durP2;ratioP2
7997;SDS011;4044;49.814;7.828;2023-10-08T00:01:21;5.65;;;3.65;;
7997;SDS011;4044;49.814;7.828;2023-10-08T00:03:47;5.72;;;3.55;;
7997;SDS011;4044;49.814;7.828;2023-10-08T00:06:14;4.10;;;3.75;;
7997;SDS011;4044;49.814;7.828;2023-10-08T00:08:40;5.38;;;4.07;;
7997;SDS011;4044;49.814;7.828;2023-10-08T00:11:06;7.75;;;4.05;;
7997;SDS011;4044;49.814;7.828;2023-10-08T00:13:32;3.97;;;3.53;;
7997;SDS011;4044;49.814;7.828;2023-10-08T00:16:11;4.95;;;3.63;;
7997;SDS011;4044;49.814;7.828;2023-10-08T00:18:41;6.40;;;4.15;;
7997;SDS011;4044;49.814;7.828;2023-10-08T00:21:13;7.40;;;4.45;;
7997;SDS011;4044;49.814;7.828;2023-10-08T00:23:39;4.28;;;3.80;;
7997;SDS011;4044;49.814;7.828;2023-10-08T00:26:07;7.40;;;3.58;;
7997;SDS011;4044;49.814;7.828;2023-10-08T00:28:33;5.35;;;3.63;;
7997;SDS011;4044;49.814;7.828;2023-10-08T00:31:01;6.07;;;4.00;;
7997;SDS011;4044;49.814;7.828;2023-10-08T00:33:36;4.20;;;3.80;;
7997;SDS011;4044;49.814;7.828;2023-10-08T00:36:01;6.07;;;4.18;;
7997;SDS011;4044;49.814;7.828;2023-10-08T00:38:42;5.20;;;4.10;;
7997;SDS011;4044;49.814;7.828;2023-10-08T00:41:12;7.18;;;4.30;;
7997;SDS011;4044;49.814;7.828;2023-10-08T00:43:40;5.25;;;3.97;;
7997;SDS011;4044;49.814;7.828;2023-10-08T00:46:07;5.70;;;3.78;;
7997;SDS011;4044;49.814;7.828;2023-10-08T00:48:43;4.43;;;3.75;;
7997;SDS011;4044;49.814;7.828;2023-10-08T00:51:10;4.78;;;4.00;;
7997;SDS011;4044;49.814;7.828;2023-10-08T00:53:56;5.80;;;3.88;;
7997;SDS011;4044;49.814;7.828;2023-10-08T00:56:30;6.05;;;4.00;;
7997;SDS011;4044;49.814;7.828;2023-10-08T00:59:21;5.07;;;3.63;;
7997;SDS011;4044;49.814;7.828;2023-10-08T01:01:48;3.75;;;3.45;;
7997;SDS011;4044;49.814;7.828;2023-10-08T01:04:17;8.52;;;4.15;;
7997;SDS011;4044;49.814;7.828;2023-10-08T01:06:48;6.13;;;3.83;;
7997;SDS011;4044;49.814;7.828;2023-10-08T01:09:25;5.32;;;4.03;;
7997;SDS011;4044;49.814;7.828;2023-10-08T01:14:50;5.70;;;3.90;;
7997;SDS011;4044;49.814;7.828;2023-10-08T01:17:19;4.63;;;3.85;;
7997;SDS011;4044;49.814;7.828;2023-10-08T01:19:49;6.45;;;4.10;;
7997;SDS011;4044;49.814;7.828;2023-10-08T01:22:20;6.75;;;4.40;;
7997;SDS011;4044;49.814;7.828;2023-10-08T01:24:47;6.55;;;3.90;;
7997;SDS011;4044;49.814;7.828;2023-10-08T01:27:14;8.20;;;3.97;;
7997;SDS011;4044;49.814;7.828;2023-10-08T01:29:50;6.50;;;4.03;;
7997;SDS011;4044;49.814;7.828;2023-10-08T01:32:20;5.80;;;3.88;;
7997;SDS011;4044;49.814;7.828;2023-10-08T01:34:47;5.97;;;3.85;;
7997;SDS011;4044;49.814;7.828;2023-10-08T01:37:16;5.63;;;4.10;;
7997;SDS011;4044;49.814;7.828;2023-10-08T01:39:45;6.15;;;3.70;;
7997;SDS011;4044;49.814;7.828;2023-10-08T01:42:14;5.63;;;3.88;;
7997;SDS011;4044;49.814;7.828;2023-10-08T01:44:45;4.53;;;3.65;;
7997;SDS011;4044;49.814;7.828;2023-10-08T01:47:12;6.60;;;4.55;;
7997;SDS011;4044;49.814;7.828;2023-10-08T01:49:39;6.18;;;3.90;;
7997;SDS011;4044;49.814;7.828;2023-10-08T01:52:05;4.72;;;3.50;;
7997;SDS011;4044;49.814;7.828;2023-10-08T01:54:41;6.83;;;4.20;;
7997;SDS011;4044;49.814;7.828;2023-10-08T01:57:07;5.78;;;4.25;;
7997;SDS011;4044;49.814;7.828;2023-10-08T01:59:34;5.05;;;4.20;;
7997;SDS011;4044;49.814;7.828;2023-10-08T02:02:00;5.63;;;4.30;;
7997;SDS011;4044;49.814;7.828;2023-10-08T02:04:26;5.65;;;4.38;;
7997;SDS011;4044;49.814;7.828;2023-10-08T02:06:52;5.25;;;4.45;;
7997;SDS011;4044;49.814;7.828;2023-10-08T02:09:18;4.40;;;4.00;;
7997;SDS011;4044;49.814;7.828;2023-10-08T02:11:50;5.88;;;4.20;;
7997;SDS011;4044;49.814;7.828;2023-10-08T02:14:18;6.53;;;4.38;;
7997;SDS011;4044;49.814;7.828;2023-10-08T02:16:46;5.77;;;4.87;;
7997;SDS011;4044;49.814;7.828;2023-10-08T02:19:12;7.27;;;4.33;;
7997;SDS011;4044;49.814;7.828;2023-10-08T02:21:38;6.00;;;4.60;;
7997;SDS011;4044;49.814;7.828;2023-10-08T02:24:11;5.73;;;4.30;;
7997;SDS011;4044;49.814;7.828;2023-10-08T02:26:37;7.77;;;4.50;;
7997;SDS011;4044;49.814;7.828;2023-10-08T02:29:03;5.50;;;4.47;;
7997;SDS011;4044;49.814;7.828;2023-10-08T02:31:36;6.07;;;4.60;;
7997;SDS011;4044;49.814;7.828;2023-10-08T02:34:04;7.13;;;4.30;;
7997;SDS011;4044;49.814;7.828;2023-10-08T02:36:33;6.00;;;4.53;;
7997;SDS011;4044;49.814;7.828;2023-10-08T02:39:01;5.80;;;4.53;;
7997;SDS011;4044;49.814;7.828;2023-10-08T02:41:31;5.40;;;4.30;;
7997;SDS011;4044;49.814;7.828;2023-10-08T02:43:57;7.40;;;4.43;;
7997;SDS011;4044;49.814;7.828;2023-10-08T02:46:24;7.67;;;4.60;;
7997;SDS011;4044;49.814;7.828;2023-10-08T02:48:51;7.13;;;4.97;;
7997;SDS011;4044;49.814;7.828;2023-10-08T02:51:17;8.53;;;4.80;;
7997;SDS011;4044;49.814;7.828;2023-10-08T02:53:45;6.43;;;4.50;;
7997;SDS011;4044;49.814;7.828;2023-10-08T02:56:11;5.73;;;4.50;;
7997;SDS011;4044;49.814;7.828;2023-10-08T02:58:41;6.77;;;4.83;;
7997;SDS011;4044;49.814;7.828;2023-10-08T03:01:12;8.40;;;4.93;;
7997;SDS011;4044;49.814;7.828;2023-10-08T03:03:41;5.13;;;4.43;;
7997;SDS011;4044;49.814;7.828;2023-10-08T03:06:07;6.10;;;4.60;;
7997;SDS011;4044;49.814;7.828;2023-10-08T03:08:36;6.40;;;4.87;;
7997;SDS011;4044;49.814;7.828;2023-10-08T03:11:04;5.10;;;4.60;;
7997;SDS011;4044;49.814;7.828;2023-10-08T03:13:31;5.63;;;4.80;;
7997;SDS011;4044;49.814;7.828;2023-10-08T03:15:57;5.17;;;4.23;;
7997;SDS011;4044;49.814;7.828;2023-10-08T03:18:32;8.87;;;5.57;;
7997;SDS011;4044;49.814;7.828;2023-10-08T03:21:02;5.20;;;4.60;;
7997;SDS011;4044;49.814;7.828;2023-10-08T03:23:29;5.47;;;4.83;;
7997;SDS011;4044;49.814;7.828;2023-10-08T03:25:59;6.63;;;4.90;;
7997;SDS011;4044;49.814;7.828;2023-10-08T03:28:34;7.13;;;5.10;;
7997;SDS011;4044;49.814;7.828;2023-10-08T03:31:00;6.23;;;4.60;;
7997;SDS011;4044;49.814;7.828;2023-10-08T03:33:30;5.93;;;4.97;;
7997;SDS011;4044;49.814;7.828;2023-10-08T03:35:59;6.30;;;4.97;;
7997;SDS011;4044;49.814;7.828;2023-10-08T03:38:29;10.00;;;4.83;;
7997;SDS011;4044;49.814;7.828;2023-10-08T03:41:15;6.53;;;4.93;;
7997;SDS011;4044;49.814;7.828;2023-10-08T03:43:44;6.77;;;4.60;;
7997;SDS011;4044;49.814;7.828;2023-10-08T03:46:31;5.90;;;4.40;;
7997;SDS011;4044;49.814;7.828;2023-10-08T03:49:04;6.00;;;4.70;;
7997;SDS011;4044;49.814;7.828;2023-10-08T03:51:39;7.07;;;5.20;;
7997;SDS011;4044;49.814;7.828;2023-10-08T03:54:06;5.70;;;4.80;;
7997;SDS011;4044;49.814;7.828;2023-10-08T03:56:43;6.13;;;4.43;;
7997;SDS011;4044;49.814;7.828;2023-10-08T03:59:16;6.50;;;5.17;;
7997;SDS011;4044;49.814;7.828;2023-10-08T04:01:46;6.27;;;4.67;;
7997;SDS011;4044;49.814;7.828;2023-10-08T04:04:14;6.33;;;4.67;;
7997;SDS011;4044;49.814;7.828;2023-10-08T04:06:40;6.07;;;4.47;;
7997;SDS011;4044;49.814;7.828;2023-10-08T04:09:14;5.60;;;4.70;;
7997;SDS011;4044;49.814;7.828;2023-10-08T04:11:49;7.67;;;4.77;;
7997;SDS011;4044;49.814;7.828;2023-10-08T04:14:16;5.50;;;4.70;;
7997;SDS011;4044;49.814;7.828;2023-10-08T04:16:42;6.27;;;4.93;;
7997;SDS011;4044;49.814;7.828;2023-10-08T04:19:09;5.93;;;4.70;;
7997;SDS011;4044;49.814;7.828;2023-10-08T04:21:37;7.13;;;4.90;;
7997;SDS011;4044;49.814;7.828;2023-10-08T04:24:06;9.23;;;5.03;;
7997;SDS011;4044;49.814;7.828;2023-10-08T04:26:33;6.80;;;5.23;;
7997;SDS011;4044;49.814;7.828;2023-10-08T04:29:05;10.40;;;5.10;;
7997;SDS011;4044;49.814;7.828;2023-10-08T04:31:34;5.07;;;4.57;;
7997;SDS011;4044;49.814;7.828;2023-10-08T04:34:06;5.77;;;4.33;;
7997;SDS011;4044;49.814;7.828;2023-10-08T04:36:42;8.00;;;4.77;;
7997;SDS011;4044;49.814;7.828;2023-10-08T04:39:11;6.30;;;5.27;;
7997;SDS011;4044;49.814;7.828;2023-10-08T04:41:46;8.23;;;5.50;;
7997;SDS011;4044;49.814;7.828;2023-10-08T04:44:17;6.50;;;5.23;;
7997;SDS011;4044;49.814;7.828;2023-10-08T04:46:43;9.53;;;5.70;;
7997;SDS011;4044;49.814;7.828;2023-10-08T04:49:13;8.17;;;6.00;;
7997;SDS011;4044;49.814;7.828;2023-10-08T04:51:53;11.57;;;5.73;;
7997;SDS011;4044;49.814;7.828;2023-10-08T04:54:22;8.37;;;5.80;;
7997;SDS011;4044;49.814;7.828;2023-10-08T04:56:49;7.00;;;5.80;;
7997;SDS011;4044;49.814;7.828;2023-10-08T04:59:14;6.17;;;5.03;;
7997;SDS011;4044;49.814;7.828;2023-10-08T05:01:45;6.43;;;5.40;;
7997;SDS011;4044;49.814;7.828;2023-10-08T05:04:21;7.10;;;5.73;;
7997;SDS011;4044;49.814;7.828;2023-10-08T05:06:58;7.70;;;5.20;;
7997;SDS011;4044;49.814;7.828;2023-10-08T05:09:41;6.03;;;4.90;;
7997;SDS011;4044;49.814;7.828;2023-10-08T05:12:17;8.33;;;5.33;;
7997;SDS011;4044;49.814;7.828;2023-10-08T05:14:58;6.80;;;5.30;;
7997;SDS011;4044;49.814;7.828;2023-10-08T05:17:42;8.47;;;5.40;;
7997;SDS011;4044;49.814;7.828;2023-10-08T05:20:23;8.03;;;5.07;;
7997;SDS011;4044;49.814;7.828;2023-10-08T05:22:55;6.73;;;4.83;;
7997;SDS011;4044;49.814;7.828;2023-10-08T05:25:31;8.20;;;5.40;;
7997;SDS011;4044;49.814;7.828;2023-10-08T05:28:18;6.10;;;5.40;;
7997;SDS011;4044;49.814;7.828;2023-10-08T05:30:49;7.73;;;5.00;;
7997;SDS011;4044;49.814;7.828;2023-10-08T05:33:20;6.53;;;5.23;;
7997;SDS011;4044;49.814;7.828;2023-10-08T05:35:49;9.40;;;5.27;;
7997;SDS011;4044;49.814;7.828;2023-10-08T05:38:20;5.73;;;4.70;;
7997;SDS011;4044;49.814;7.828;2023-10-08T05:40:59;7.90;;;4.90;;
7997;SDS011;4044;49.814;7.828;2023-10-08T05:43:24;6.73;;;4.90;;
7997;SDS011;4044;49.814;7.828;2023-10-08T05:46:06;6.13;;;4.93;;
7997;SDS011;4044;49.814;7.828;2023-10-08T05:48:47;8.57;;;5.00;;
7997;SDS011;4044;49.814;7.828;2023-10-08T05:51:48;7.43;;;4.93;;
7997;SDS011;4044;49.814;7.828;2023-10-08T05:54:18;6.57;;;5.23;;
7997;SDS011;4044;49.814;7.828;2023-10-08T05:56:51;6.97;;;4.90;;
7997;SDS011;4044;49.814;7.828;2023-10-08T05:59:32;6.60;;;5.00;;
7997;SDS011;4044;49.814;7.828;2023-10-08T06:02:17;7.30;;;4.83;;
7997;SDS011;4044;49.814;7.828;2023-10-08T06:04:59;5.60;;;4.97;;
7997;SDS011;4044;49.814;7.828;2023-10-08T06:07:49;4.83;;;4.33;;
7997;SDS011;4044;49.814;7.828;2023-10-08T06:10:19;7.20;;;4.87;;
7997;SDS011;4044;49.814;7.828;2023-10-08T06:15:39;6.70;;;4.87;;
7997;SDS011;4044;49.814;7.828;2023-10-08T06:18:10;6.83;;;4.90;;
7997;SDS011;4044;49.814;7.828;2023-10-08T06:20:36;5.83;;;4.87;;
7997;SDS011;4044;49.814;7.828;2023-10-08T06:23:04;7.47;;;4.93;;
7997;SDS011;4044;49.814;7.828;2023-10-08T06:25:32;5.73;;;4.50;;
7997;SDS011;4044;49.814;7.828;2023-10-08T06:28:09;5.70;;;4.43;;
7997;SDS011;4044;49.814;7.828;2023-10-08T06:30:44;8.63;;;5.40;;
7997;SDS011;4044;49.814;7.828;2023-10-08T06:33:11;6.73;;;4.83;;
7997;SDS011;4044;49.814;7.828;2023-10-08T06:35:36;5.73;;;4.63;;
7997;SDS011;4044;49.814;7.828;2023-10-08T06:38:02;7.43;;;4.43;;
7997;SDS011;4044;49.814;7.828;2023-10-08T06:40:34;6.47;;;4.60;;
7997;SDS011;4044;49.814;7.828;2023-10-08T06:43:03;5.07;;;4.30;;
7997;SDS011;4044;49.814;7.828;2023-10-08T06:45:46;5.88;;;4.93;;
7997;SDS011;4044;49.814;7.828;2023-10-08T06:48:13;6.75;;;4.72;;
7997;SDS011;4044;49.814;7.828;2023-10-08T06:50:46;6.35;;;4.75;;
7997;SDS011;4044;49.814;7.828;2023-10-08T06:53:12;9.38;;;4.80;;
7997;SDS011;4044;49.814;7.828;2023-10-08T06:55:43;5.22;;;4.40;;
7997;SDS011;4044;49.814;7.828;2023-10-08T06:58:09;6.65;;;5.10;;
7997;SDS011;4044;49.814;7.828;2023-10-08T07:00:36;5.93;;;4.57;;
7997;SDS011;4044;49.814;7.828;2023-10-08T07:03:04;6.35;;;4.72;;
7997;SDS011;4044;49.814;7.828;2023-10-08T07:05:33;7.60;;;4.78;;
7997;SDS011;4044;49.814;7.828;2023-10-08T07:08:05;4.72;;;4.30;;
7997;SDS011;4044;49.814;7.828;2023-10-08T07:10:32;6.65;;;4.57;;
7997;SDS011;4044;49.814;7.828;2023-10-08T07:13:01;5.97;;;4.70;;
7997;SDS011;4044;49.814;7.828;2023-10-08T07:15:32;9.07;;;4.18;;
7997;SDS011;4044;49.814;7.828;2023-10-08T07:18:03;4.72;;;4.05;;
7997;SDS011;4044;49.814;7.828;2023-10-08T07:20:35;5.65;;;4.47;;
7997;SDS011;4044;49.814;7.828;2023-10-08T07:23:10;7.10;;;4.70;;
7997;SDS011;4044;49.814;7.828;2023-10-08T07:25:53;7.35;;;4.55;;
7997;SDS011;4044;49.814;7.828;2023-10-08T07:28:25;6.43;;;4.40;;
7997;SDS011;4044;49.814;7.828;2023-10-08T07:30:51;7.22;;;4.45;;
7997;SDS011;4044;49.814;7.828;2023-10-08T07:33:17;5.25;;;4.38;;
7997;SDS011;4044;49.814;7.828;2023-10-08T07:35:46;5.25;;;4.40;;
7997;SDS011;4044;49.814;7.828;2023-10-08T07:38:36;4.78;;;4.22;;
7997;SDS011;4044;49.814;7.828;2023-10-08T07:41:03;6.47;;;4.30;;
7997;SDS011;4044;49.814;7.828;2023-10-08T07:43:30;6.10;;;4.60;;
7997;SDS011;4044;49.814;7.828;2023-10-08T07:45:57;7.63;;;4.30;;
7997;SDS011;4044;49.814;7.828;2023-10-08T07:48:23;5.75;;;4.40;;
7997;SDS011;4044;49.814;7.828;2023-10-08T07:50:54;5.28;;;4.72;;
7997;SDS011;4044;49.814;7.828;2023-10-08T07:53:21;5.50;;;4.40;;
7997;SDS011;4044;49.814;7.828;2023-10-08T07:55:49;10.10;;;4.70;;
7997;SDS011;4044;49.814;7.828;2023-10-08T07:58:16;7.10;;;4.57;;
7997;SDS011;4044;49.814;7.828;2023-10-08T08:00:43;7.18;;;4.75;;
7997;SDS011;4044;49.814;7.828;2023-10-08T08:03:17;5.03;;;3.85;;
7997;SDS011;4044;49.814;7.828;2023-10-08T08:05:46;5.32;;;3.80;;
7997;SDS011;4044;49.814;7.828;2023-10-08T08:08:13;5.07;;;4.07;;
7997;SDS011;4044;49.814;7.828;2023-10-08T08:10:42;6.38;;;4.47;;
7997;SDS011;4044;49.814;7.828;2023-10-08T08:13:09;4.80;;;4.32;;
7997;SDS011;4044;49.814;7.828;2023-10-08T08:15:34;7.40;;;4.45;;
7997;SDS011;4044;49.814;7.828;2023-10-08T08:18:06;6.40;;;4.63;;
7997;SDS011;4044;49.814;7.828;2023-10-08T08:20:43;6.72;;;4.53;;
7997;SDS011;4044;49.814;7.828;2023-10-08T08:23:09;7.50;;;4.75;;
7997;SDS011;4044;49.814;7.828;2023-10-08T08:25:36;7.50;;;4.35;;
7997;SDS011;4044;49.814;7.828;2023-10-08T08:28:11;6.47;;;4.18;;
7997;SDS011;4044;49.814;7.828;2023-10-08T08:30:46;4.88;;;4.38;;
7997;SDS011;4044;49.814;7.828;2023-10-08T08:33:13;7.57;;;4.28;;
7997;SDS011;4044;49.814;7.828;2023-10-08T08:35:46;5.50;;;4.18;;
7997;SDS011;4044;49.814;7.828;2023-10-08T08:38:12;5.47;;;4.70;;
7997;SDS011;4044;49.814;7.828;2023-10-08T08:40:38;5.43;;;4.50;;
7997;SDS011;4044;49.814;7.828;2023-10-08T08:43:05;5.65;;;4.28;;
7997;SDS011;4044;49.814;7.828;2023-10-08T08:45:30;5.70;;;4.47;;
7997;SDS011;4044;49.814;7.828;2023-10-08T08:47:58;5.47;;;4.45;;
7997;SDS011;4044;49.814;7.828;2023-10-08T08:50:24;5.72;;;4.22;;
7997;SDS011;4044;49.814;7.828;2023-10-08T08:52:51;6.05;;;4.20;;
7997;SDS011;4044;49.814;7.828;2023-10-08T08:55:17;5.97;;;4.18;;
7997;SDS011;4044;49.814;7.828;2023-10-08T08:57:46;6.00;;;4.35;;
7997;SDS011;4044;49.814;7.828;2023-10-08T09:00:13;6.57;;;4.05;;
7997;SDS011;4044;49.814;7.828;2023-10-08T09:02:46;7.80;;;4.43;;
7997;SDS011;4044;49.814;7.828;2023-10-08T09:05:12;7.00;;;4.32;;
7997;SDS011;4044;49.814;7.828;2023-10-08T09:07:59;6.22;;;4.40;;
7997;SDS011;4044;49.814;7.828;2023-10-08T09:10:29;6.55;;;4.47;;
7997;SDS011;4044;49.814;7.828;2023-10-08T09:13:02;6.35;;;4.30;;
7997;SDS011;4044;49.814;7.828;2023-10-08T09:15:32;6.65;;;4.65;;
7997;SDS011;4044;49.814;7.828;2023-10-08T09:17:58;7.80;;;4.30;;
7997;SDS011;4044;49.814;7.828;2023-10-08T09:20:30;7.28;;;4.57;;
7997;SDS011;4044;49.814;7.828;2023-10-08T09:23:12;7.13;;;4.50;;
7997;SDS011;4044;49.814;7.828;2023-10-08T09:25:39;7.80;;;5.05;;
7997;SDS011;4044;49.814;7.828;2023-10-08T09:28:06;5.80;;;4.25;;
7997;SDS011;4044;49.814;7.828;2023-10-08T09:30:36;4.60;;;4.05;;
7997;SDS011;4044;49.814;7.828;2023-10-08T09:33:10;5.53;;;4.03;;
7997;SDS011;4044;49.814;7.828;2023-10-08T09:35:37;8.02;;;4.45;;
7997;SDS011;4044;49.814;7.828;2023-10-08T09:38:03;6.25;;;4.50;;
7997;SDS011;4044;49.814;7.828;2023-10-08T09:40:34;7.13;;;4.20;;
7997;SDS011;4044;49.814;7.828;2023-10-08T09:43:03;4.38;;;3.97;;
7997;SDS011;4044;49.814;7.828;2023-10-08T09:45:29;7.13;;;4.35;;
7997;SDS011;4044;49.814;7.828;2023-10-08T09:47:55;6.13;;;4.60;;
7997;SDS011;4044;49.814;7.828;2023-10-08T09:50:27;5.10;;;4.38;;
7997;SDS011;4044;49.814;7.828;2023-10-08T09:55:42;6.50;;;4.50;;
7997;SDS011;4044;49.814;7.828;2023-10-08T09:58:14;7.57;;;4.40;;
7997;SDS011;4044;49.814;7.828;2023-10-08T10:00:41;5.70;;;4.40;;
7997;SDS011;4044;49.814;7.828;2023-10-08T10:03:09;7.57;;;4.63;;
7997;SDS011;4044;49.814;7.828;2023-10-08T10:05:37;7.03;;;4.50;;
7997;SDS011;4044;49.814;7.828;2023-10-08T10:08:03;8.35;;;4.65;;
7997;SDS011;4044;49.814;7.828;2023-10-08T10:10:35;5.15;;;4.03;;
7997;SDS011;4044;49.814;7.828;2023-10-08T10:13:03;9.52;;;4.60;;
7997;SDS011;4044;49.814;7.828;2023-10-08T10:15:33;7.55;;;4.35;;
7997;SDS011;4044;49.814;7.828;2023-10-08T10:18:28;4.40;;;4.00;;
7997;SDS011;4044;49.814;7.828;2023-10-08T10:20:58;8.15;;;4.38;;
7997;SDS011;4044;49.814;7.828;2023-10-08T10:23:37;7.10;;;4.32;;
7997;SDS011;4044;49.814;7.828;2023-10-08T10:31:37;9.32;;;4.90;;
7997;SDS011;4044;49.814;7.828;2023-10-08T10:34:06;6.45;;;4.35;;
7997;SDS011;4044;49.814;7.828;2023-10-08T10:36:35;6.75;;;4.78;;
7997;SDS011;4044;49.814;7.828;2023-10-08T10:39:02;6.47;;;4.18;;
7997;SDS011;4044;49.814;7.828;2023-10-08T10:41:51;7.88;;;4.53;;
7997;SDS011;4044;49.814;7.828;2023-10-08T10:44:26;7.25;;;4.50;;
7997;SDS011;4044;49.814;7.828;2023-10-08T10:46:54;6.18;;;4.40;;
7997;SDS011;4044;49.814;7.828;2023-10-08T10:49:39;7.97;;;4.30;;
7997;SDS011;4044;49.814;7.828;2023-10-08T10:52:19;6.53;;;4.57;;
7997;SDS011;4044;49.814;7.828;2023-10-08T10:55:09;8.32;;;4.57;;
7997;SDS011;4044;49.814;7.828;2023-10-08T10:57:48;7.70;;;4.65;;
7997;SDS011;4044;49.814;7.828;2023-10-08T11:00:19;9.60;;;5.20;;
7997;SDS011;4044;49.814;7.828;2023-10-08T11:02:57;6.70;;;4.43;;
7997;SDS011;4044;49.814;7.828;2023-10-08T11:05:41;8.32;;;4.80;;
7997;SDS011;4044;49.814;7.828;2023-10-08T11:08:12;5.82;;;4.40;;
7997;SDS011;4044;49.814;7.828;2023-10-08T11:10:39;6.93;;;4.43;;
7997;SDS011;4044;49.814;7.828;2023-10-08T11:13:12;6.47;;;3.97;;
7997;SDS011;4044;49.814;7.828;2023-10-08T11:15:45;7.35;;;4.72;;
7997;SDS011;4044;49.814;7.828;2023-10-08T11:18:20;9.82;;;4.63;;
7997;SDS011;4044;49.814;7.828;2023-10-08T11:20:47;6.07;;;4.43;;
7997;SDS011;4044;49.814;7.828;2023-10-08T11:23:35;8.40;;;4.43;;
7997;SDS011;4044;49.814;7.828;2023-10-08T11:26:02;8.52;;;4.72;;
7997;SDS011;4044;49.814;7.828;2023-10-08T11:28:36;5.60;;;4.40;;
7997;SDS011;4044;49.814;7.828;2023-10-08T11:31:11;8.35;;;4.38;;
7997;SDS011;4044;49.814;7.828;2023-10-08T11:33:41;6.07;;;4.45;;
7997;SDS011;4044;49.814;7.828;2023-10-08T11:36:16;6.25;;;4.45;;
7997;SDS011;4044;49.814;7.828;2023-10-08T11:38:45;6.25;;;4.15;;
7997;SDS011;4044;49.814;7.828;2023-10-08T11:41:16;8.32;;;4.55;;
7997;SDS011;4044;49.814;7.828;2023-10-08T11:43:51;4.93;;;4.05;;
7997;SDS011;4044;49.814;7.828;2023-10-08T11:46:30;8.95;;;4.50;;
7997;SDS011;4044;49.814;7.828;2023-10-08T11:49:03;7.75;;;4.43;;
7997;SDS011;4044;49.814;7.828;2023-10-08T11:51:33;7.20;;;4.65;;
7997;SDS011;4044;49.814;7.828;2023-10-08T11:54:02;7.95;;;4.55;;
7997;SDS011;4044;49.814;7.828;2023-10-08T11:56:31;7.43;;;5.00;;
7997;SDS011;4044;49.814;7.828;2023-10-08T11:58:58;5.97;;;4.40;;
7997;SDS011;4044;49.814;7.828;2023-10-08T12:01:26;8.15;;;4.68;;
7997;SDS011;4044;49.814;7.828;2023-10-08T12:03:52;5.22;;;4.30;;
7997;SDS011;4044;49.814;7.828;2023-10-08T12:06:24;10.93;;;4.97;;
7997;SDS011;4044;49.814;7.828;2023-10-08T12:08:50;6.30;;;4.75;;
7997;SDS011;4044;49.814;7.828;2023-10-08T12:11:18;8.32;;;4.43;;
7997;SDS011;4044;49.814;7.828;2023-10-08T12:13:44;7.20;;;4.28;;
7997;SDS011;4044;49.814;7.828;2023-10-08T12:16:11;8.60;;;4.72;;
7997;SDS011;4044;49.814;7.828;2023-10-08T12:18:42;8.18;;;4.40;;
7997;SDS011;4044;49.814;7.828;2023-10-08T12:21:09;8.93;;;4.78;;
7997;SDS011;4044;49.814;7.828;2023-10-08T12:23:40;6.65;;;4.50;;
7997;SDS011;4044;49.814;7.828;2023-10-08T12:26:08;10.48;;;4.60;;
7997;SDS011;4044;49.814;7.828;2023-10-08T12:28:34;9.07;;;4.70;;
7997;SDS011;4044;49.814;7.828;2023-10-08T12:31:01;4.82;;;4.18;;
7997;SDS011;4044;49.814;7.828;2023-10-08T12:33:28;8.55;;;4.03;;
7997;SDS011;4044;49.814;7.828;2023-10-08T12:35:55;8.25;;;4.65;;
7997;SDS011;4044;49.814;7.828;2023-10-08T12:38:23;8.90;;;5.03;;
7997;SDS011;4044;49.814;7.828;2023-10-08T12:40:52;6.85;;;4.72;;
7997;SDS011;4044;49.814;7.828;2023-10-08T12:43:18;5.85;;;4.82;;
7997;SDS011;4044;49.814;7.828;2023-10-08T12:45:45;7.35;;;4.60;;
7997;SDS011;4044;49.814;7.828;2023-10-08T12:48:17;9.25;;;4.90;;
7997;SDS011;4044;49.814;7.828;2023-10-08T12:50:46;7.18;;;5.00;;
7997;SDS011;4044;49.814;7.828;2023-10-08T12:53:19;10.40;;;4.95;;
7997;SDS011;4044;49.814;7.828;2023-10-08T12:55:48;7.90;;;4.95;;
7997;SDS011;4044;49.814;7.828;2023-10-08T12:58:18;9.57;;;4.93;;
7997;SDS011;4044;49.814;7.828;2023-10-08T13:00:50;7.20;;;4.38;;
7997;SDS011;4044;49.814;7.828;2023-10-08T13:03:25;5.88;;;4.45;;
7997;SDS011;4044;49.814;7.828;2023-10-08T13:05:55;8.52;;;4.63;;
7997;SDS011;4044;49.814;7.828;2023-10-08T13:08:28;9.05;;;4.93;;
7997;SDS011;4044;49.814;7.828;2023-10-08T13:10:58;7.72;;;5.05;;
7997;SDS011;4044;49.814;7.828;2023-10-08T13:13:27;9.13;;;4.32;;
7997;SDS011;4044;49.814;7.828;2023-10-08T13:15:54;9.80;;;4.78;;
7997;SDS011;4044;49.814;7.828;2023-10-08T13:18:24;6.55;;;4.38;;
7997;SDS011;4044;49.814;7.828;2023-10-08T13:20:53;7.45;;;4.68;;
7997;SDS011;4044;49.814;7.828;2023-10-08T13:23:19;6.63;;;4.47;;
7997;SDS011;4044;49.814;7.828;2023-10-08T13:25:52;7.20;;;4.63;;
7997;SDS011;4044;49.814;7.828;2023-10-08T13:28:23;6.10;;;4.28;;
7997;SDS011;4044;49.814;7.828;2023-10-08T13:30:52;7.10;;;4.35;;
7997;SDS011;4044;49.814;7.828;2023-10-08T13:33:19;9.27;;;4.82;;
7997;SDS011;4044;49.814;7.828;2023-10-08T13:35:47;7.85;;;4.55;;
7997;SDS011;4044;49.814;7.828;2023-10-08T13:38:16;11.15;;;4.30;;
7997;SDS011;4044;49.814;7.828;2023-10-08T13:40:44;10.20;;;4.80;;
7997;SDS011;4044;49.814;7.828;2023-10-08T13:43:34;7.93;;;4.50;;
7997;SDS011;4044;49.814;7.828;2023-10-08T13:48:32;9.93;;;4.43;;
7997;SDS011;4044;49.814;7.828;2023-10-08T13:51:00;10.13;;;4.82;;
7997;SDS011;4044;49.814;7.828;2023-10-08T13:53:32;7.03;;;4.68;;
7997;SDS011;4044;49.814;7.828;2023-10-08T13:56:01;8.68;;;4.20;;
7997;SDS011;4044;49.814;7.828;2023-10-08T13:58:29;9.65;;;4.82;;
7997;SDS011;4044;49.814;7.828;2023-10-08T14:00:56;7.95;;;4.20;;
7997;SDS011;4044;49.814;7.828;2023-10-08T14:03:25;6.78;;;4.60;;
7997;SDS011;4044;49.814;7.828;2023-10-08T14:05:51;6.40;;;4.80;;
7997;SDS011;4044;49.814;7.828;2023-10-08T14:08:19;12.55;;;5.07;;
7997;SDS011;4044;49.814;7.828;2023-10-08T14:10:47;9.45;;;4.75;;
7997;SDS011;4044;49.814;7.828;2023-10-08T14:13:13;8.23;;;4.80;;
7997;SDS011;4044;49.814;7.828;2023-10-08T14:15:44;7.53;;;4.32;;
7997;SDS011;4044;49.814;7.828;2023-10-08T14:18:20;8.75;;;4.10;;
7997;SDS011;4044;49.814;7.828;2023-10-08T14:20:54;7.00;;;4.20;;
7997;SDS011;4044;49.814;7.828;2023-10-08T14:23:21;10.60;;;4.68;;
7997;SDS011;4044;49.814;7.828;2023-10-08T14:25:50;9.20;;;4.60;;
7997;SDS011;4044;49.814;7.828;2023-10-08T14:28:17;7.57;;;4.22;;
7997;SDS011;4044;49.814;7.828;2023-10-08T14:31:03;6.78;;;4.28;;
7997;SDS011;4044;49.814;7.828;2023-10-08T14:33:35;8.45;;;4.43;;
7997;SDS011;4044;49.814;7.828;2023-10-08T14:36:08;7.63;;;4.30;;
7997;SDS011;4044;49.814;7.828;2023-10-08T14:38:52;8.68;;;4.28;;
7997;SDS011;4044;49.814;7.828;2023-10-08T14:41:36;8.52;;;4.43;;
7997;SDS011;4044;49.814;7.828;2023-10-08T14:44:20;9.07;;;4.43;;
7997;SDS011;4044;49.814;7.828;2023-10-08T14:46:46;7.30;;;4.78;;
7997;SDS011;4044;49.814;7.828;2023-10-08T14:49:11;7.72;;;5.18;;
7997;SDS011;4044;49.814;7.828;2023-10-08T14:51:38;9.95;;;4.38;;
7997;SDS011;4044;49.814;7.828;2023-10-08T14:54:05;7.18;;;4.65;;
7997;SDS011;4044;49.814;7.828;2023-10-08T14:56:32;7.00;;;4.32;;
7997;SDS011;4044;49.814;7.828;2023-10-08T14:58:59;6.10;;;4.75;;
7997;SDS011;4044;49.814;7.828;2023-10-08T15:01:25;8.93;;;4.63;;
7997;SDS011;4044;49.814;7.828;2023-10-08T15:03:51;8.13;;;4.43;;
7997;SDS011;4044;49.814;7.828;2023-10-08T15:06:17;7.65;;;4.72;;
7997;SDS011;4044;49.814;7.828;2023-10-08T15:08:44;7.85;;;4.47;;
7997;SDS011;4044;49.814;7.828;2023-10-08T15:11:09;9.77;;;4.70;;
7997;SDS011;4044;49.814;7.828;2023-10-08T15:13:35;7.55;;;4.72;;
7997;SDS011;4044;49.814;7.828;2023-10-08T15:16:03;10.82;;;4.30;;
7997;SDS011;4044;49.814;7.828;2023-10-08T15:18:29;7.68;;;4.57;;
7997;SDS011;4044;49.814;7.828;2023-10-08T15:20:57;7.25;;;4.75;;
7997;SDS011;4044;49.814;7.828;2023-10-08T15:23:23;11.93;;;4.95;;
7997;SDS011;4044;49.814;7.828;2023-10-08T15:25:52;9.80;;;4.65;;
7997;SDS011;4044;49.814;7.828;2023-10-08T15:28:18;6.57;;;4.25;;
7997;SDS011;4044;49.814;7.828;2023-10-08T15:30:43;7.70;;;4.68;;
7997;SDS011;4044;49.814;7.828;2023-10-08T15:33:09;6.30;;;4.38;;
7997;SDS011;4044;49.814;7.828;2023-10-08T15:35:37;10.40;;;4.90;;
7997;SDS011;4044;49.814;7.828;2023-10-08T15:38:02;8.25;;;4.60;;
7997;SDS011;4044;49.814;7.828;2023-10-08T15:40:29;8.48;;;5.03;;
7997;SDS011;4044;49.814;7.828;2023-10-08T15:42:55;8.63;;;4.65;;
7997;SDS011;4044;49.814;7.828;2023-10-08T15:45:22;11.15;;;4.70;;
7997;SDS011;4044;49.814;7.828;2023-10-08T15:47:49;9.25;;;4.70;;
7997;SDS011;4044;49.814;7.828;2023-10-08T15:50:16;7.55;;;4.50;;
7997;SDS011;4044;49.814;7.828;2023-10-08T15:52:45;11.63;;;5.15;;